Météo Nord-Pas-de-Calais   La météo au plus près de chez vous

Station météorologique

Observations météo à Etoile (26124)

26124001 145 m Dernier relevé à 23:36
23.2°C
Humidité 47 % Vent 15.8 km/h

Journée consultée

Lundi 31 Août 2026

Synthèse de la journée

Périodes de référence en UTC

Température maximale

30.3°C

à 17:00

06h 06h

Température minimale

21°C

à 07:18

18h 18h

Rafale maximale

34 km/h

à 09:42

00h 00h

Précipitations

0 mm

Cumul quotidien

06h 06h

Ensoleillement

11h 34 mins

Durée quotidienne

00h 00h

Graphiques de la journée

Heure locale Réduire

Données détaillées

Relevés météo

Pas de 6 minutes Afficher les relevés infra-horaires
Relevés météo détaillés à Etoile pour le Lundi 31 Août 2026
Heure Température °C Point de rosée °C Humidité % Vent moyen (raf.), km/h Précipitations mm Température à 10 cm °C Température à 20 cm °C Ensoleillement min Rayonnement global W/m²
23:36 23.2 °C 11.6 °C 48 % 20 km/h (30 km/h) 0 mm0 mm 24.2 °C 24 °C 0 min 0 W/m²
23:30 23.3 °C 11.4 °C 47 % 18 km/h (30 km/h) 0 mm0 mm 24.3 °C 24 °C 0 min 0 W/m²
23:24 23.2 °C 11.6 °C 48 % 17 km/h (26 km/h) 0 mm0 mm 24.3 °C 24 °C 0 min 0 W/m²
23:18 23.2 °C 11.6 °C 48 % 15 km/h (24 km/h) 0 mm0 mm 24.3 °C 24 °C 0 min 0 W/m²
23:12 23.2 °C 11.6 °C 48 % 15 km/h (23 km/h) 0 mm0 mm 24.3 °C 24 °C 0 min 0 W/m²
23:06 23.2 °C 11.6 °C 48 % 14 km/h (23 km/h) 0 mm0 mm 24.3 °C 24 °C 0 min 0 W/m²
23:00 23.3 °C 11.7 °C 48 % 13 km/h (20 km/h) 0 mm0 mm 24.3 °C 24 °C 0 min 0 W/m²
22:54 23.4 °C 11.4 °C 47 % 13 km/h (21 km/h) 0 mm0 mm 24.3 °C 24 °C 0 min 0 W/m²
22:48 23.5 °C 11.5 °C 47 % 14 km/h (22 km/h) 0 mm0 mm 24.4 °C 24 °C 0 min 0 W/m²
22:42 23.7 °C 11.7 °C 47 % 15 km/h (22 km/h) 0 mm0 mm 24.4 °C 24 °C 0 min 0 W/m²
22:36 23.7 °C 11.7 °C 47 % 16 km/h (23 km/h) 0 mm0 mm 24.4 °C 24 °C 0 min 0 W/m²
22:30 23.7 °C 11.7 °C 47 % 14 km/h (20 km/h) 0 mm0 mm 24.4 °C 24 °C 0 min 0 W/m²
22:24 23.7 °C 11.7 °C 47 % 14 km/h (21 km/h) 0 mm0 mm 24.4 °C 24 °C 0 min 0 W/m²
22:18 23.9 °C 11.6 °C 46 % 14 km/h (21 km/h) 0 mm0 mm 24.4 °C 24 °C 0 min 0 W/m²
22:12 24 °C 11.3 °C 45 % 13 km/h (20 km/h) 0 mm0 mm 24.4 °C 24 °C 0 min 0 W/m²
22:06 24.1 °C 11.4 °C 45 % 14 km/h (20 km/h) 0 mm0 mm 24.5 °C 24 °C 0 min 0 W/m²
22:00 24.2 °C 11.2 °C 44 % 14 km/h (22 km/h) 0 mm0 mm 24.5 °C 24 °C 0 min 0 W/m²
21:54 24.4 °C 11 °C 43 % 13 km/h (22 km/h) 0 mm0 mm 24.5 °C 24 °C 0 min 0 W/m²
21:48 24.6 °C 11.2 °C 43 % 14 km/h (21 km/h) 0 mm0 mm 24.5 °C 24 °C 0 min 0 W/m²
21:42 24.6 °C 11.2 °C 43 % 13 km/h (21 km/h) 0 mm0 mm 24.5 °C 23.9 °C 0 min 0 W/m²
21:36 24.7 °C 11.3 °C 43 % 13 km/h (19 km/h) 0 mm0 mm 24.5 °C 23.9 °C 0 min 0 W/m²
21:30 24.7 °C 11.3 °C 43 % 13 km/h (19 km/h) 0 mm0 mm 24.5 °C 23.9 °C 0 min 0 W/m²
21:24 24.7 °C 11.3 °C 43 % 12 km/h (19 km/h) 0 mm0 mm 24.5 °C 23.9 °C 0 min 0 W/m²
21:18 24.9 °C 11.5 °C 43 % 12 km/h (18 km/h) 0 mm0 mm 24.5 °C 23.9 °C 0 min 0 W/m²
21:12 25.1 °C 11.3 °C 42 % 13 km/h (18 km/h) 0 mm0 mm 24.5 °C 23.9 °C 0 min 0 W/m²
21:06 25.2 °C 11.4 °C 42 % 11 km/h (17 km/h) 0 mm0 mm 24.5 °C 23.9 °C 0 min 0 W/m²
21:00 25.2 °C 11.4 °C 42 % 10 km/h (15 km/h) 0 mm0 mm 24.5 °C 23.9 °C 0 min 0 W/m²
20:54 25.1 °C 10.9 °C 41 % 11 km/h (17 km/h) 0 mm0 mm 24.5 °C 23.9 °C 0 min 0 W/m²
20:48 25.3 °C 11.1 °C 41 % 10 km/h (15 km/h) 0 mm0 mm 24.6 °C 23.9 °C 0 min 0 W/m²
20:42 25.4 °C 11.2 °C 41 % 10 km/h (15 km/h) 0 mm0 mm 24.5 °C 23.9 °C 0 min 0 W/m²
20:36 25.7 °C 11.1 °C 40 % 10 km/h (16 km/h) 0 mm0 mm 24.6 °C 23.9 °C 0 min 0 W/m²
20:30 25.6 °C 11 °C 40 % 10 km/h (16 km/h) 0 mm0 mm 24.6 °C 23.9 °C 0 min 0 W/m²
20:24 25.9 °C 11.3 °C 40 % 9 km/h (16 km/h) 0 mm0 mm 24.6 °C 23.9 °C 0 min 0 W/m²
20:18 26.4 °C 10.9 °C 38 % 11 km/h (18 km/h) 0 mm0 mm 24.6 °C 23.9 °C 0 min 0 W/m²
20:12 26.7 °C 10.8 °C 37 % 13 km/h (23 km/h) 0 mm0 mm 24.6 °C 23.9 °C 0 min 0.5 W/m²
20:06 27.1 °C 10.7 °C 36 % 14 km/h (23 km/h) 0 mm0 mm 24.6 °C 23.9 °C 0 min 5 W/m²
20:00 27.4 °C 11 °C 36 % 14 km/h (19 km/h) 0 mm0 mm 24.6 °C 23.9 °C 0 min 6.5 W/m²
19:54 27.6 °C 10.8 °C 35 % 13 km/h (18 km/h) 0 mm0 mm 24.6 °C 23.8 °C 0 min 8.8 W/m²
19:48 27.8 °C 10.9 °C 35 % 16 km/h (26 km/h) 0 mm0 mm 24.5 °C 23.8 °C 0 min 12.2 W/m²
19:42 28 °C 10.7 °C 34 % 18 km/h (28 km/h) 0 mm0 mm 24.6 °C 23.8 °C 0 min 16 W/m²
19:36 28.3 °C 10.9 °C 34 % 16 km/h (26 km/h) 0 mm0 mm 24.5 °C 23.8 °C 0 min 20.1 W/m²
19:30 28.5 °C 10.7 °C 33 % 14 km/h (23 km/h) 0 mm0 mm 24.5 °C 23.8 °C 4 min 24.1 W/m²
19:24 28.6 °C 10.7 °C 33 % 17 km/h (26 km/h) 0 mm0 mm 24.5 °C 23.8 °C 6 min 29.8 W/m²
19:18 28.6 °C 10.7 °C 33 % 17 km/h (26 km/h) 0 mm0 mm 24.5 °C 23.8 °C 6 min 34.8 W/m²
19:12 29 °C 11.1 °C 33 % 18 km/h (26 km/h) 0 mm0 mm 24.5 °C 23.8 °C 6 min 40.3 W/m²
19:06 29.1 °C 10.2 °C 31 % 17 km/h (26 km/h) 0 mm0 mm 24.5 °C 23.8 °C 6 min 45.4 W/m²
19:00 29.3 °C 10.9 °C 32 % 15 km/h (23 km/h) 0 mm0 mm 24.5 °C 23.8 °C 6 min 50.7 W/m²
18:54 29.4 °C 11 °C 32 % 17 km/h (25 km/h) 0 mm0 mm 24.5 °C 23.8 °C 6 min 56.7 W/m²
18:48 29.5 °C 10.6 °C 31 % 19 km/h (30 km/h) 0 mm0 mm 24.5 °C 23.7 °C 6 min 63.1 W/m²
18:42 29.6 °C 10.7 °C 31 % 17 km/h (27 km/h) 0 mm0 mm 24.5 °C 23.7 °C 6 min 69.1 W/m²
18:36 29.6 °C 10.7 °C 31 % 15 km/h (25 km/h) 0 mm0 mm 24.5 °C 23.7 °C 6 min 75.7 W/m²
18:30 29.6 °C 10.2 °C 30 % 13 km/h (21 km/h) 0 mm0 mm 24.5 °C 23.7 °C 6 min 82.9 W/m²
18:24 29.5 °C 10.1 °C 30 % 16 km/h (24 km/h) 0 mm0 mm 24.4 °C 23.7 °C 6 min 89.9 W/m²
18:18 29.6 °C 10.2 °C 30 % 17 km/h (24 km/h) 0 mm0 mm 24.4 °C 23.7 °C 6 min 96.2 W/m²
18:12 30 °C 10.5 °C 30 % 17 km/h (27 km/h) 0 mm0 mm 24.4 °C 23.7 °C 6 min 101.9 W/m²
18:06 30.1 °C 10.6 °C 30 % 15 km/h (27 km/h) 0 mm0 mm 24.4 °C 23.7 °C 6 min 109.3 W/m²
18:00 30.1 °C 10.6 °C 30 % 18 km/h (27 km/h) 0 mm0 mm 24.4 °C 23.7 °C 6 min 115.2 W/m²
17:54 29.9 °C 10.4 °C 30 % 20 km/h (31 km/h) 0 mm0 mm 24.4 °C 23.7 °C 6 min 121 W/m²
17:48 29.9 °C 10.4 °C 30 % 21 km/h (31 km/h) 0 mm0 mm 24.3 °C 23.6 °C 6 min 127.4 W/m²
17:42 30.1 °C 10.1 °C 29 % 19 km/h (26 km/h) 0 mm0 mm 24.3 °C 23.6 °C 6 min 133.8 W/m²
17:36 30 °C 10.5 °C 30 % 16 km/h (26 km/h) 0 mm0 mm 24.3 °C 23.6 °C 6 min 139.5 W/m²
17:30 30 °C 11 °C 31 % 13 km/h (21 km/h) 0 mm0 mm 24.3 °C 23.6 °C 6 min 145.8 W/m²
17:24 29.6 °C 10.7 °C 31 % 13 km/h (19 km/h) 0 mm0 mm 24.3 °C 23.6 °C 6 min 151.8 W/m²
17:18 29.8 °C 10.8 °C 31 % 13 km/h (20 km/h) 0 mm0 mm 24.3 °C 23.6 °C 6 min 158.1 W/m²
17:12 29.8 °C 10.8 °C 31 % 17 km/h (27 km/h) 0 mm0 mm 24.2 °C 23.6 °C 6 min 164.4 W/m²
17:06 30.1 °C 10.6 °C 30 % 16 km/h (27 km/h) 0 mm0 mm 24.2 °C 23.6 °C 6 min 169.8 W/m²
17:00 29.8 °C 11.3 °C 32 % 13 km/h (22 km/h) 0 mm0 mm 24.2 °C 23.6 °C 6 min 175.6 W/m²
16:54 29.7 °C 10.3 °C 30 % 13 km/h (21 km/h) 0 mm0 mm 24.2 °C 23.5 °C 6 min 182.3 W/m²
16:48 29.7 °C 10.8 °C 31 % 15 km/h (23 km/h) 0 mm0 mm 24.2 °C 23.5 °C 6 min 188.2 W/m²
16:42 29.9 °C 11.4 °C 32 % 15 km/h (24 km/h) 0 mm0 mm 24.1 °C 23.5 °C 6 min 193 W/m²
16:36 29.7 °C 11.2 °C 32 % 15 km/h (23 km/h) 0 mm0 mm 24.1 °C 23.5 °C 6 min 197.4 W/m²
16:30 29.4 °C 11 °C 32 % 16 km/h (25 km/h) 0 mm0 mm 24.1 °C 23.5 °C 6 min 202.6 W/m²
16:24 30.1 °C 11.6 °C 32 % 13 km/h (25 km/h) 0 mm0 mm 24.1 °C 23.5 °C 6 min 207.3 W/m²
16:18 29.7 °C 11.2 °C 32 % 13 km/h (23 km/h) 0 mm0 mm 24 °C 23.5 °C 6 min 212.4 W/m²
16:12 29.5 °C 11.1 °C 32 % 17 km/h (26 km/h) 0 mm0 mm 24 °C 23.5 °C 6 min 217.7 W/m²
16:06 29.9 °C 11.4 °C 32 % 15 km/h (26 km/h) 0 mm0 mm 24 °C 23.4 °C 6 min 221.7 W/m²
16:00 29.6 °C 11.6 °C 33 % 14 km/h (23 km/h) 0 mm0 mm 24 °C 23.4 °C 6 min 225.9 W/m²
15:54 29.5 °C 11.5 °C 33 % 14 km/h (23 km/h) 0 mm0 mm 24 °C 23.4 °C 6 min 229.6 W/m²
15:48 29.5 °C 11.5 °C 33 % 15 km/h (29 km/h) 0 mm0 mm 23.9 °C 23.4 °C 6 min 233.9 W/m²
15:42 29.4 °C 11.9 °C 34 % 17 km/h (29 km/h) 0 mm0 mm 23.9 °C 23.4 °C 6 min 238.4 W/m²
15:36 29.5 °C 12 °C 34 % 16 km/h (27 km/h) 0 mm0 mm 23.9 °C 23.4 °C 6 min 243 W/m²
15:30 29.6 °C 12.1 °C 34 % 16 km/h (27 km/h) 0 mm0 mm 23.9 °C 23.4 °C 6 min 246.3 W/m²
15:24 29.6 °C 12.5 °C 35 % 14 km/h (22 km/h) 0 mm0 mm 23.8 °C 23.4 °C 6 min 249.5 W/m²
15:18 29.4 °C 12.3 °C 35 % 16 km/h (30 km/h) 0 mm0 mm 23.8 °C 23.4 °C 6 min 254.2 W/m²
15:12 29.5 °C 12 °C 34 % 18 km/h (30 km/h) 0 mm0 mm 23.8 °C 23.4 °C 6 min 258.5 W/m²
15:06 29.5 °C 11.5 °C 33 % 14 km/h (27 km/h) 0 mm0 mm 23.8 °C 23.4 °C 6 min 261.4 W/m²
15:00 29.6 °C 12.5 °C 35 % 12 km/h (25 km/h) 0 mm0 mm 23.8 °C 23.4 °C 6 min 264 W/m²
14:54 29 °C 11.5 °C 34 % 17 km/h (28 km/h) 0 mm0 mm 23.7 °C 23.4 °C 6 min 268.7 W/m²
14:48 29.2 °C 11.7 °C 34 % 18 km/h (28 km/h) 0 mm0 mm 23.7 °C 23.4 °C 6 min 272.2 W/m²
14:42 29.3 °C 12.7 °C 36 % 17 km/h (27 km/h) 0 mm0 mm 23.7 °C 23.4 °C 6 min 275.3 W/m²
14:36 29.3 °C 12.7 °C 36 % 15 km/h (24 km/h) 0 mm0 mm 23.7 °C 23.3 °C 6 min 277.5 W/m²
14:30 28.9 °C 12.7 °C 37 % 16 km/h (27 km/h) 0 mm0 mm 23.6 °C 23.3 °C 6 min 280.4 W/m²
14:24 28.9 °C 12.7 °C 37 % 17 km/h (28 km/h) 0 mm0 mm 23.6 °C 23.3 °C 6 min 283.3 W/m²
14:18 28.7 °C 12.6 °C 37 % 15 km/h (28 km/h) 0 mm0 mm 23.6 °C 23.3 °C 6 min 284.3 W/m²
14:12 28.5 °C 12.4 °C 37 % 16 km/h (28 km/h) 0 mm0 mm 23.6 °C 23.3 °C 6 min 285 W/m²
14:06 29.1 °C 12.9 °C 37 % 14 km/h (23 km/h) 0 mm0 mm 23.6 °C 23.3 °C 6 min 285.9 W/m²
14:00 28.5 °C 12.4 °C 37 % 16 km/h (26 km/h) 0 mm0 mm 23.5 °C 23.3 °C 6 min 287.7 W/m²
13:54 28.6 °C 12.9 °C 38 % 18 km/h (26 km/h) 0 mm0 mm 23.5 °C 23.3 °C 6 min 288.7 W/m²
13:48 28.3 °C 11.8 °C 36 % 15 km/h (24 km/h) 0 mm0 mm 23.5 °C 23.3 °C 6 min 290.4 W/m²
13:42 28.5 °C 13.6 °C 40 % 14 km/h (24 km/h) 0 mm0 mm 23.5 °C 23.3 °C 6 min 291.2 W/m²
13:36 28.8 °C 13.5 °C 39 % 17 km/h (27 km/h) 0 mm0 mm 23.4 °C 23.3 °C 6 min 290.8 W/m²
13:30 28.2 °C 13.3 °C 40 % 18 km/h (27 km/h) 0 mm0 mm 23.4 °C 23.3 °C 6 min 291.9 W/m²
13:24 28.2 °C 13.3 °C 40 % 17 km/h (25 km/h) 0 mm0 mm 23.4 °C 23.3 °C 6 min 292.7 W/m²
13:18 28.1 °C 14.7 °C 44 % 18 km/h (25 km/h) 0 mm0 mm 23.4 °C 23.3 °C 6 min 292.2 W/m²
13:12 27.7 °C 13.6 °C 42 % 15 km/h (24 km/h) 0 mm0 mm 23.4 °C 23.3 °C 6 min 290.3 W/m²
13:06 27.9 °C 14.9 °C 45 % 16 km/h (24 km/h) 0 mm0 mm 23.4 °C 23.3 °C 6 min 288.7 W/m²
13:00 27.7 °C 14.3 °C 44 % 16 km/h (24 km/h) 0 mm0 mm 23.4 °C 23.3 °C 6 min 288.6 W/m²
12:54 27.6 °C 14.6 °C 45 % 14 km/h (23 km/h) 0 mm0 mm 23.4 °C 23.3 °C 6 min 289.3 W/m²
12:48 27.5 °C 15.2 °C 47 % 13 km/h (22 km/h) 0 mm0 mm 23.3 °C 23.3 °C 6 min 285.9 W/m²
12:42 27.3 °C 15.3 °C 48 % 15 km/h (26 km/h) 0 mm0 mm 23.3 °C 23.3 °C 6 min 286.5 W/m²
12:36 27.1 °C 15.1 °C 48 % 16 km/h (26 km/h) 0 mm0 mm 23.3 °C 23.3 °C 6 min 286.9 W/m²
12:30 27.3 °C 15.6 °C 49 % 15 km/h (24 km/h) 0 mm0 mm 23.3 °C 23.3 °C 6 min 284.7 W/m²
12:24 26.7 °C 14.8 °C 48 % 16 km/h (23 km/h) 0 mm0 mm 23.3 °C 23.3 °C 6 min 282 W/m²
12:18 27 °C 15.4 °C 49 % 15 km/h (23 km/h) 0 mm0 mm 23.3 °C 23.3 °C 6 min 279.2 W/m²
12:12 26.6 °C 15.3 °C 50 % 14 km/h (23 km/h) 0 mm0 mm 23.3 °C 23.3 °C 6 min 274.6 W/m²
12:06 26.6 °C 15.9 °C 52 % 14 km/h (22 km/h) 0 mm0 mm 23.3 °C 23.3 °C 6 min 272.1 W/m²
12:00 26 °C 15.7 °C 53 % 15 km/h (23 km/h) 0 mm0 mm 23.3 °C 23.3 °C 5 min 241.2 W/m²
11:54 25.8 °C 15.5 °C 53 % 17 km/h (24 km/h) 0 mm0 mm 23.3 °C 23.3 °C 0 min 132 W/m²
11:48 26.4 °C 16 °C 53 % 17 km/h (24 km/h) 0 mm0 mm 23.3 °C 23.3 °C 6 min 265.2 W/m²
11:42 26.2 °C 15.9 °C 53 % 17 km/h (29 km/h) 0 mm0 mm 23.3 °C 23.3 °C 3 min 182.7 W/m²
11:36 26.1 °C 16.1 °C 54 % 17 km/h (29 km/h) 0 mm0 mm 23.3 °C 23.3 °C 6 min 283.9 W/m²
11:30 25.8 °C 16.1 °C 55 % 17 km/h (28 km/h) 0 mm0 mm 23.3 °C 23.3 °C 6 min 261.6 W/m²
11:24 25.9 °C 15.9 °C 54 % 18 km/h (28 km/h) 0 mm0 mm 23.2 °C 23.3 °C 6 min 251.6 W/m²
11:18 25.8 °C 15.5 °C 53 % 17 km/h (23 km/h) 0 mm0 mm 23.2 °C 23.4 °C 6 min 247.4 W/m²
11:12 26.1 °C 15.8 °C 53 % 15 km/h (23 km/h) 0 mm0 mm 23.3 °C 23.3 °C 6 min 240.7 W/m²
11:06 26 °C 16 °C 54 % 17 km/h (27 km/h) 0 mm0 mm 23.2 °C 23.4 °C 6 min 237.4 W/m²
11:00 25.5 °C 15.8 °C 55 % 21 km/h (28 km/h) 0 mm0 mm 23.2 °C 23.4 °C 6 min 234.3 W/m²
10:54 25.4 °C 15.1 °C 53 % 21 km/h (28 km/h) 0 mm0 mm 23.2 °C 23.4 °C 6 min 227.2 W/m²
10:48 25.5 °C 15.5 °C 54 % 19 km/h (27 km/h) 0 mm0 mm 23.2 °C 23.4 °C 6 min 221.5 W/m²
10:42 25.3 °C 16.2 °C 57 % 18 km/h (25 km/h) 0 mm0 mm 23.2 °C 23.4 °C 6 min 216.8 W/m²
10:36 25.2 °C 16.9 °C 60 % 19 km/h (29 km/h) 0 mm0 mm 23.2 °C 23.4 °C 6 min 211.5 W/m²
10:30 24.8 °C 17.3 °C 63 % 20 km/h (29 km/h) 0 mm0 mm 23.3 °C 23.4 °C 6 min 206.6 W/m²
10:24 24.6 °C 17.6 °C 65 % 20 km/h (28 km/h) 0 mm0 mm 23.3 °C 23.4 °C 6 min 200.1 W/m²
10:18 24.5 °C 17.7 °C 66 % 21 km/h (28 km/h) 0 mm0 mm 23.3 °C 23.4 °C 6 min 194.9 W/m²
10:12 24.2 °C 17.4 °C 66 % 20 km/h (30 km/h) 0 mm0 mm 23.3 °C 23.4 °C 6 min 188.2 W/m²
10:06 24.5 °C 17.7 °C 66 % 18 km/h (30 km/h) 0 mm0 mm 23.3 °C 23.4 °C 6 min 182.2 W/m²
10:00 23.8 °C 17.5 °C 68 % 22 km/h (30 km/h) 0 mm0 mm 23.3 °C 23.4 °C 6 min 177 W/m²
09:54 23.7 °C 17.7 °C 69 % 22 km/h (30 km/h) 0 mm0 mm 23.3 °C 23.4 °C 6 min 171 W/m²
09:48 23.6 °C 17.6 °C 69 % 24 km/h (33 km/h) 0 mm0 mm 23.3 °C 23.4 °C 6 min 165.4 W/m²
09:42 23.4 °C 17.6 °C 70 % 23 km/h (33 km/h) 0 mm0 mm 23.3 °C 23.4 °C 6 min 158.5 W/m²
09:36 23.3 °C 17.5 °C 70 % 21 km/h (30 km/h) 0 mm0 mm 23.3 °C 23.4 °C 6 min 151.7 W/m²
09:30 23.4 °C 17.8 °C 71 % 19 km/h (27 km/h) 0 mm0 mm 23.3 °C 23.4 °C 6 min 145.3 W/m²
09:24 23.1 °C 17.8 °C 72 % 19 km/h (27 km/h) 0 mm0 mm 23.3 °C 23.4 °C 6 min 138.8 W/m²
09:18 23 °C 17.9 °C 73 % 18 km/h (26 km/h) 0 mm0 mm 23.3 °C 23.4 °C 6 min 132.8 W/m²
09:12 22.8 °C 17.7 °C 73 % 18 km/h (26 km/h) 0 mm0 mm 23.3 °C 23.4 °C 6 min 126.4 W/m²
09:06 22.7 °C 17.8 °C 74 % 16 km/h (24 km/h) 0 mm0 mm 23.3 °C 23.4 °C 6 min 120.5 W/m²
09:00 22.6 °C 17.9 °C 75 % 17 km/h (24 km/h) 0 mm0 mm 23.3 °C 23.4 °C 6 min 114.6 W/m²
08:54 22.5 °C 17.8 °C 75 % 17 km/h (24 km/h) 0 mm0 mm 23.3 °C 23.4 °C 6 min 107.8 W/m²
08:48 22.4 °C 17.7 °C 75 % 16 km/h (24 km/h) 0 mm0 mm 23.3 °C 23.5 °C 6 min 100.5 W/m²
08:42 22.3 °C 17.9 °C 76 % 15 km/h (24 km/h) 0 mm0 mm 23.4 °C 23.5 °C 6 min 93.2 W/m²
08:36 22.2 °C 17.6 °C 75 % 15 km/h (21 km/h) 0 mm0 mm 23.4 °C 23.5 °C 6 min 87.1 W/m²
08:30 22.1 °C 17.9 °C 77 % 15 km/h (20 km/h) 0 mm0 mm 23.4 °C 23.5 °C 6 min 80.3 W/m²
08:24 22 °C 17.8 °C 77 % 16 km/h (21 km/h) 0 mm0 mm 23.4 °C 23.5 °C 6 min 72.7 W/m²
08:18 21.9 °C 17.7 °C 77 % 15 km/h (22 km/h) 0 mm0 mm 23.4 °C 23.5 °C 6 min 66 W/m²
08:12 21.7 °C 17.7 °C 78 % 15 km/h (27 km/h) 0 mm0 mm 23.4 °C 23.5 °C 6 min 58.8 W/m²
08:06 21.6 °C 17.6 °C 78 % 17 km/h (27 km/h) 0 mm0 mm 23.4 °C 23.5 °C 6 min 52.3 W/m²
08:00 21.6 °C 17.6 °C 78 % 13 km/h (19 km/h) 0 mm0 mm 23.4 °C 23.5 °C 6 min 46.1 W/m²
07:54 21.5 °C 17.5 °C 78 % 12 km/h (19 km/h) 0 mm0 mm 23.4 °C 23.5 °C 6 min 40.6 W/m²
07:48 21.4 °C 17.6 °C 79 % 13 km/h (19 km/h) 0 mm0 mm 23.4 °C 23.5 °C 4 min 28.1 W/m²
07:42 21.2 °C 17.4 °C 79 % 10 km/h (19 km/h) 0 mm0 mm 23.4 °C 23.5 °C 0 min 11.1 W/m²
07:36 21.1 °C 17.5 °C 80 % 7 km/h (15 km/h) 0 mm0 mm 23.4 °C 23.5 °C 0 min 10.1 W/m²
07:30 21.1 °C 17.5 °C 80 % 8 km/h (14 km/h) 0 mm0 mm 23.4 °C 23.5 °C 0 min 8.3 W/m²
07:24 21.1 °C 17.5 °C 80 % 8 km/h (14 km/h) 0 mm0 mm 23.4 °C 23.5 °C 0 min 5.4 W/m²
07:18 21 °C 17.4 °C 80 % 8 km/h (13 km/h) 0 mm0 mm 23.5 °C 23.5 °C 0 min 1.6 W/m²
07:12 21.2 °C 17.4 °C 79 % 8 km/h (13 km/h) 0 mm0 mm 23.5 °C 23.5 °C 0 min 0 W/m²
07:06 21.4 °C 17.4 °C 78 % 6 km/h (12 km/h) 0 mm0 mm 23.5 °C 23.6 °C 0 min 0 W/m²
07:00 21.5 °C 17.5 °C 78 % 7 km/h (11 km/h) 0 mm0 mm 23.5 °C 23.6 °C 0 min 0 W/m²
06:54 21.6 °C 17.4 °C 77 % 8 km/h (13 km/h) 0 mm0 mm 23.5 °C 23.6 °C 0 min 0 W/m²
06:48 21.7 °C 17.5 °C 77 % 8 km/h (13 km/h) 0 mm0 mm 23.5 °C 23.6 °C 0 min 0 W/m²
06:42 21.8 °C 17.4 °C 76 % 7 km/h (12 km/h) 0 mm0 mm 23.5 °C 23.6 °C 0 min 0 W/m²
06:36 21.9 °C 17.3 °C 75 % 9 km/h (17 km/h) 0 mm0 mm 23.5 °C 23.6 °C 0 min 0 W/m²
06:30 22.1 °C 17.2 °C 74 % 12 km/h (19 km/h) 0 mm0 mm 23.5 °C 23.6 °C 0 min 0 W/m²
06:24 22.2 °C 17.1 °C 73 % 14 km/h (19 km/h) 0 mm0 mm 23.5 °C 23.6 °C 0 min 0 W/m²
06:18 22.3 °C 17 °C 72 % 15 km/h (20 km/h) 0 mm0 mm 23.6 °C 23.6 °C 0 min 0 W/m²
06:12 22.3 °C 17 °C 72 % 14 km/h (20 km/h) 0 mm0 mm 23.6 °C 23.6 °C 0 min 0 W/m²
06:06 22.4 °C 17.1 °C 72 % 15 km/h (22 km/h) 0 mm0 mm 23.6 °C 23.6 °C 0 min 0 W/m²
06:00 22.5 °C 17 °C 71 % 14 km/h (22 km/h) 0 mm0 mm 23.6 °C 23.6 °C 0 min 0 W/m²
05:54 22.4 °C 17.1 °C 72 % 12 km/h (18 km/h) 0 mm0 mm 23.6 °C 23.6 °C 0 min 0 W/m²
05:48 22.5 °C 17 °C 71 % 10 km/h (16 km/h) 0 mm0 mm 23.6 °C 23.6 °C 0 min 0 W/m²
05:42 22.7 °C 17.2 °C 71 % 9 km/h (14 km/h) 0 mm0 mm 23.6 °C 23.6 °C 0 min 0 W/m²
05:36 22.8 °C 17 °C 70 % 8 km/h (12 km/h) 0 mm0 mm 23.6 °C 23.6 °C 0 min 0 W/m²
05:30 22.9 °C 16.9 °C 69 % 8 km/h (12 km/h) 0 mm0 mm 23.6 °C 23.6 °C 0 min 0 W/m²
05:24 22.9 °C 16.7 °C 68 % 8 km/h (12 km/h) 0 mm0 mm 23.6 °C 23.6 °C 0 min 0 W/m²
05:18 23 °C 16.8 °C 68 % 11 km/h (22 km/h) 0 mm0 mm 23.6 °C 23.6 °C 0 min 0 W/m²
05:12 23.2 °C 16.7 °C 67 % 14 km/h (22 km/h) 0 mm0 mm 23.6 °C 23.6 °C 0 min 0 W/m²
05:06 23.2 °C 16.7 °C 67 % 14 km/h (20 km/h) 0 mm0 mm 23.6 °C 23.6 °C 0 min 0 W/m²
05:00 23.2 °C 16.7 °C 67 % 14 km/h (19 km/h) 0 mm0 mm 23.7 °C 23.6 °C 0 min 0 W/m²
04:54 23.2 °C 16.7 °C 67 % 15 km/h (22 km/h) 0 mm0 mm 23.7 °C 23.6 °C 0 min 0 W/m²
04:48 23.2 °C 16.5 °C 66 % 15 km/h (22 km/h) 0 mm0 mm 23.7 °C 23.6 °C 0 min 0 W/m²
04:42 23.2 °C 16.5 °C 66 % 15 km/h (22 km/h) 0 mm0 mm 23.7 °C 23.6 °C 0 min 0 W/m²
04:36 23.1 °C 16.6 °C 67 % 13 km/h (21 km/h) 0 mm0 mm 23.7 °C 23.7 °C 0 min 0 W/m²
04:30 23.1 °C 16.6 °C 67 % 12 km/h (19 km/h) 0 mm0 mm 23.7 °C 23.7 °C 0 min 0 W/m²
04:24 23 °C 16.5 °C 67 % 10 km/h (19 km/h) 0 mm0 mm 23.7 °C 23.7 °C 0 min 0 W/m²
04:18 22.8 °C 16.6 °C 68 % 9 km/h (16 km/h) 0 mm0 mm 23.7 °C 23.7 °C 0 min 0 W/m²
04:12 22.6 °C 16.4 °C 68 % 8 km/h (12 km/h) 0 mm0 mm 23.7 °C 23.7 °C 0 min 0 W/m²
04:06 22.2 °C 16.2 °C 69 % 6 km/h (13 km/h) 0 mm0 mm 23.7 °C 23.7 °C 0 min 0 W/m²
04:00 21.7 °C 15.5 °C 68 % 6 km/h (9 km/h) 0 mm0 mm 23.7 °C 23.7 °C 0 min 0 W/m²
03:54 21.6 °C 15.7 °C 69 % 6 km/h (10 km/h) 0 mm0 mm 23.8 °C 23.7 °C 0 min 0 W/m²
03:48 21.5 °C 15.8 °C 70 % 5 km/h (10 km/h) 0 mm0 mm 23.8 °C 23.7 °C 0 min 0 W/m²
03:42 21.5 °C 15.8 °C 70 % 5 km/h (8 km/h) 0 mm0 mm 23.8 °C 23.7 °C 0 min 0 W/m²
03:36 21.6 °C 15.7 °C 69 % 4 km/h (7 km/h) 0 mm0 mm 23.8 °C 23.7 °C 0 min 0 W/m²
03:30 21.9 °C 15.5 °C 67 % 3 km/h (7 km/h) 0 mm0 mm 23.8 °C 23.7 °C 0 min 0 W/m²
03:24 21.9 °C 15.5 °C 67 % 5 km/h (8 km/h) 0 mm0 mm 23.8 °C 23.7 °C 0 min 0 W/m²
03:18 21.7 °C 15.3 °C 67 % 5 km/h (8 km/h) 0 mm0 mm 23.8 °C 23.7 °C 0 min 0 W/m²
03:12 21.6 °C 15.7 °C 69 % 4 km/h (7 km/h) 0 mm0 mm 23.8 °C 23.7 °C 0 min 0 W/m²
03:06 21.4 °C 15.9 °C 71 % 2 km/h (5 km/h) 0 mm0 mm 23.8 °C 23.7 °C 0 min 0 W/m²
03:00 21.8 °C 15.6 °C 68 % 3 km/h (5 km/h) 0 mm0 mm 23.8 °C 23.7 °C 0 min 0 W/m²
02:54 21.8 °C 15.2 °C 66 % 2 km/h (5 km/h) 0 mm0 mm 23.8 °C 23.7 °C 0 min 0 W/m²
02:48 21.7 °C 16.2 °C 71 % 0 km/h (2 km/h) 0 mm0 mm 23.9 °C 23.7 °C 0 min 0 W/m²
02:42 21.5 °C 16 °C 71 % 0 km/h (2 km/h) 0 mm0 mm 23.9 °C 23.7 °C 0 min 0 W/m²
02:36 22 °C 15.6 °C 67 % 2 km/h (3 km/h) 0 mm0 mm 23.9 °C 23.7 °C 0 min 0 W/m²
02:30 22 °C 15.6 °C 67 % 2 km/h (3 km/h) 0 mm0 mm 23.9 °C 23.7 °C 0 min 0 W/m²
02:24 22 °C 15.6 °C 67 % 2 km/h (4 km/h) 0 mm0 mm 23.9 °C 23.7 °C 0 min 0 W/m²
02:18 21.8 °C 14.9 °C 65 % 3 km/h (4 km/h) 0 mm0 mm 23.9 °C 23.7 °C 0 min 0 W/m²
02:12 22 °C 16 °C 69 % 3 km/h (5 km/h) 0 mm0 mm 23.9 °C 23.7 °C 0 min 0 W/m²
02:06 22 °C 15.1 °C 65 % 3 km/h (5 km/h) 0 mm0 mm 23.9 °C 23.7 °C 0 min 0 W/m²
02:00 21.9 °C 15 °C 65 % 4 km/h (7 km/h) 0 mm0 mm 23.9 °C 23.7 °C 0 min 0 W/m²
01:54 22 °C 15.6 °C 67 % 3 km/h (7 km/h) 0 mm0 mm 24 °C 23.7 °C 0 min 0 W/m²
01:48 22.2 °C 15.3 °C 65 % 0 km/h (3 km/h) 0 mm0 mm 24 °C 23.7 °C 0 min 0 W/m²
01:42 22.3 °C 14.9 °C 63 % 2 km/h (4 km/h) 0 mm0 mm 24 °C 23.7 °C 0 min 0 W/m²
01:36 22.5 °C 14.9 °C 62 % 3 km/h (6 km/h) 0 mm0 mm 24 °C 23.7 °C 0 min 0 W/m²
01:30 22.4 °C 14.8 °C 62 % 4 km/h (8 km/h) 0 mm0 mm 24 °C 23.8 °C 0 min 0 W/m²
01:24 22.2 °C 14.8 °C 63 % 4 km/h (7 km/h) 0 mm0 mm 24 °C 23.8 °C 0 min 0 W/m²
01:18 22.6 °C 14.7 °C 61 % 4 km/h (8 km/h) 0 mm0 mm 24 °C 23.7 °C 0 min 0 W/m²
01:12 22.6 °C 14.4 °C 60 % 4 km/h (7 km/h) 0 mm0 mm 24 °C 23.8 °C 0 min 0 W/m²
01:06 22.5 °C 14.3 °C 60 % 3 km/h (6 km/h) 0 mm0 mm 24 °C 23.8 °C 0 min 0 W/m²
01:00 22.7 °C 14.3 °C 59 % 3 km/h (7 km/h) 0 mm0 mm 24.1 °C 23.8 °C 0 min 0 W/m²
00:54 23 °C 14.8 °C 60 % 3 km/h (9 km/h) 0 mm0 mm 24.1 °C 23.8 °C 0 min 0 W/m²
00:48 23.2 °C 14.2 °C 57 % 5 km/h (9 km/h) 0 mm0 mm 24.1 °C 23.8 °C 0 min 0 W/m²
00:42 23.5 °C 14.2 °C 56 % 5 km/h (9 km/h) 0 mm0 mm 24.1 °C 23.8 °C 0 min 0 W/m²
00:36 23.6 °C 14 °C 55 % 4 km/h (10 km/h) 0 mm0 mm 24.1 °C 23.8 °C 0 min 0 W/m²
00:30 23.9 °C 14 °C 54 % 5 km/h (11 km/h) 0 mm0 mm 24.1 °C 23.8 °C 0 min 0 W/m²
00:24 24 °C 14.1 °C 54 % 8 km/h (13 km/h) 0 mm0 mm 24.1 °C 23.8 °C 0 min 0 W/m²
00:18 24.4 °C 13.9 °C 52 % 9 km/h (14 km/h) 0 mm0 mm 24.1 °C 23.8 °C 0 min 0 W/m²
00:12 24.5 °C 14 °C 52 % 8 km/h (14 km/h) 0 mm0 mm 24.1 °C 23.7 °C 0 min 0 W/m²
00:06 24.5 °C 14 °C 52 % 7 km/h (14 km/h) 0 mm0 mm 24.1 °C 23.7 °C 0 min 0 W/m²
00:00 24.5 °C 14 °C 52 % 6 km/h (14 km/h) 0 mm0 mm 24.2 °C 23.7 °C 0 min 0 W/m²

Données via Météo-France

Relevés météo à Etoile

Cette page rassemble les observations de la station de Etoile : température, humidité, vent, précipitations et pression atmosphérique. Les graphiques facilitent le suivi de la journée, tandis que le tableau donne accès aux mesures horaires et infra-horaires disponibles.

Pour replacer ces mesures dans leur contexte, consultez la climatologie de Etoile ainsi que ses normales et records. Retrouvez aussi la carte des observations météo en temps réel.